Time;durP1;ratioP1;P1;durP2;ratioP2;P2;SDS_P1;SDS_P2;PMS_P1;PMS_P2;Temp;Humidity;BMP_temperature;BMP_pressure;BME280_temperature;BME280_humidity;BME280_pressure;Samples;Min_cycle;Max_cycle;Signal;HPM_P1;HPM_P2
2023/11/13 00:02:16;;;;;;;25.88;10.68;;;6.10;99.90;;;;;;5035253;28;20025;-60
2023/11/13 00:04:42;;;;;;;23.58;11.25;;;6.10;99.90;;;;;;5046197;28;20483;-59
2023/11/13 00:07:07;;;;;;;24.02;11.27;;;6.10;99.90;;;;;;5039262;28;20128;-61
2023/11/13 00:09:33;;;;;;;23.23;11.38;;;6.10;99.90;;;;;;5039877;28;20100;-62
2023/11/13 00:11:59;;;;;;;25.80;12.02;;;6.20;99.90;;;;;;5044602;28;20031;-61
2023/11/13 00:14:24;;;;;;;29.83;11.48;;;6.20;99.90;;;;;;5049277;28;20033;-61
2023/11/13 00:16:50;;;;;;;25.08;10.18;;;6.20;99.90;;;;;;5042301;28;20468;-61
2023/11/13 00:19:16;;;;;;;23.48;12.73;;;6.30;99.90;;;;;;5043706;28;20025;-61
2023/11/13 00:21:42;;;;;;;27.58;10.93;;;6.30;99.90;;;;;;5042023;28;20446;-61
2023/11/13 00:24:08;;;;;;;19.25;10.43;;;6.30;99.90;;;;;;5043776;28;20052;-61
2023/11/13 00:26:34;;;;;;;19.60;10.35;;;6.30;99.90;;;;;;5037452;28;20476;-61
2023/11/13 00:29:01;;;;;;;26.92;10.80;;;6.40;99.90;;;;;;5046839;28;20025;-59
2023/11/13 00:31:27;;;;;;;25.38;10.55;;;6.40;99.90;;;;;;5042924;28;20044;-61
2023/11/13 00:33:53;;;;;;;32.08;10.85;;;6.50;99.90;;;;;;5042331;28;20087;-62
2023/11/13 00:36:19;;;;;;;23.80;11.02;;;6.50;99.90;;;;;;5039181;28;20028;-61
2023/11/13 00:38:44;;;;;;;23.75;9.68;;;6.60;99.90;;;;;;5043783;28;20487;-61
2023/11/13 00:41:11;;;;;;;18.38;8.90;;;6.60;99.90;;;;;;5034121;28;20037;-61
2023/11/13 00:43:36;;;;;;;19.23;8.50;;;6.60;99.90;;;;;;5032853;28;20120;-61
2023/11/13 00:46:02;;;;;;;23.58;9.23;;;6.60;99.90;;;;;;5037099;28;20079;-61
2023/11/13 00:48:28;;;;;;;18.98;9.30;;;6.60;99.90;;;;;;5036838;28;20448;-61
2023/11/13 00:50:53;;;;;;;19.70;8.30;;;6.60;99.90;;;;;;5034214;28;20025;-61
2023/11/13 00:53:19;;;;;;;27.27;9.77;;;6.60;99.90;;;;;;5036704;28;20111;-60
2023/11/13 00:55:44;;;;;;;28.88;9.32;;;6.60;99.90;;;;;;5045048;28;20036;-57
2023/11/13 00:58:10;;;;;;;35.65;8.68;;;6.60;99.90;;;;;;5035435;28;20033;-57
2023/11/13 01:00:35;;;;;;;18.02;8.80;;;6.60;99.90;;;;;;5033099;28;20103;-61
2023/11/13 01:03:01;;;;;;;26.92;8.57;;;6.70;99.90;;;;;;5034384;28;20040;-62
2023/11/13 01:05:27;;;;;;;22.70;8.63;;;6.70;99.90;;;;;;5030564;28;20029;-61
2023/11/13 01:07:53;;;;;;;17.38;7.70;;;6.70;99.90;;;;;;5034770;28;20017;-61
2023/11/13 01:10:18;;;;;;;17.55;7.35;;;6.70;99.90;;;;;;5038541;28;20381;-59
2023/11/13 01:12:44;;;;;;;14.10;7.07;;;6.70;99.90;;;;;;5042841;28;20059;-60
2023/11/13 01:15:11;;;;;;;21.35;7.50;;;6.60;99.90;;;;;;5031702;28;20104;-61
2023/11/13 01:17:36;;;;;;;14.40;7.18;;;6.70;99.90;;;;;;5040553;28;20083;-60
2023/11/13 01:20:06;;;;;;;25.02;7.95;;;6.70;99.90;;;;;;5033377;28;20021;-60
2023/11/13 01:22:32;;;;;;;14.75;7.07;;;6.70;99.90;;;;;;5031328;28;20068;-60
2023/11/13 01:24:58;;;;;;;21.60;7.55;;;6.70;99.90;;;;;;5032716;28;20437;-60
2023/11/13 01:27:23;;;;;;;17.80;6.38;;;6.70;99.90;;;;;;5030837;28;20021;-58
2023/11/13 01:29:49;;;;;;;12.45;6.15;;;6.80;99.90;;;;;;5032752;28;20384;-61
2023/11/13 01:32:15;;;;;;;19.90;6.68;;;6.80;99.90;;;;;;5032289;28;20022;-61
2023/11/13 01:34:42;;;;;;;16.70;6.28;;;6.80;99.90;;;;;;5030661;28;20029;-59
2023/11/13 01:37:08;;;;;;;10.98;6.53;;;6.90;99.90;;;;;;5030549;28;20215;-58
2023/11/13 01:39:34;;;;;;;10.23;5.82;;;6.80;99.90;;;;;;5033245;28;20021;-60
2023/11/13 01:42:00;;;;;;;10.52;5.57;;;6.80;99.90;;;;;;5030464;28;20025;-61
2023/11/13 01:44:25;;;;;;;17.55;6.18;;;6.70;99.90;;;;;;5033394;28;20442;-59
2023/11/13 01:46:51;;;;;;;13.60;6.70;;;6.80;99.90;;;;;;5033801;28;20508;-60
2023/11/13 01:49:19;;;;;;;20.27;6.40;;;6.80;99.90;;;;;;5031878;28;20052;-59
2023/11/13 01:51:44;;;;;;;19.23;6.18;;;6.80;99.90;;;;;;5036090;28;20025;-61
2023/11/13 01:54:12;;;;;;;24.05;7.35;;;6.80;99.90;;;;;;5033045;28;20029;-58
2023/11/13 01:56:37;;;;;;;15.02;6.40;;;6.90;99.90;;;;;;5035440;28;20467;-60
2023/11/13 01:59:03;;;;;;;14.15;5.85;;;7.00;99.90;;;;;;5028025;28;20120;-61
2023/11/13 02:01:31;;;;;;;21.25;6.68;;;7.00;99.90;;;;;;5029844;28;21694;-59
2023/11/13 02:03:56;;;;;;;15.52;5.85;;;7.00;99.90;;;;;;5032232;28;20059;-57
2023/11/13 02:06:25;;;;;;;16.95;5.55;;;7.00;99.90;;;;;;5033923;28;20025;-60
2023/11/13 02:08:51;;;;;;;14.77;5.82;;;7.10;99.90;;;;;;5038034;28;20330;-61
2023/11/13 02:11:17;;;;;;;11.88;8.02;;;7.10;99.90;;;;;;5041109;28;20460;-59
2023/11/13 02:13:44;;;;;;;8.73;5.22;;;7.10;99.90;;;;;;5039606;28;20033;-61
2023/11/13 02:16:12;;;;;;;26.48;6.78;;;7.10;99.90;;;;;;5036523;28;20051;-61
2023/11/13 02:18:37;;;;;;;10.90;5.22;;;7.10;99.90;;;;;;5038801;28;20384;-59
2023/11/13 02:21:03;;;;;;;12.45;5.57;;;7.10;99.90;;;;;;5036511;28;20025;-60
2023/11/13 02:23:29;;;;;;;9.68;4.72;;;7.20;99.90;;;;;;5044335;28;20124;-60
2023/11/13 02:25:55;;;;;;;8.68;5.13;;;7.20;99.90;;;;;;5045316;28;20495;-61
2023/11/13 02:28:21;;;;;;;14.07;5.82;;;7.20;99.90;;;;;;5040872;28;20067;-61
2023/11/13 02:30:47;;;;;;;10.80;5.38;;;7.20;99.90;;;;;;5042505;28;20391;-60
2023/11/13 02:33:13;;;;;;;16.15;5.63;;;7.20;99.90;;;;;;5039648;28;20037;-60
2023/11/13 02:35:38;;;;;;;13.55;5.30;;;7.20;99.90;;;;;;5042096;28;20044;-61
2023/11/13 02:38:05;;;;;;;9.52;5.10;;;7.30;99.90;;;;;;5040788;28;20036;-60
2023/11/13 02:40:30;;;;;;;9.30;5.60;;;7.30;99.90;;;;;;5041411;28;20025;-61
2023/11/13 02:42:56;;;;;;;11.07;5.43;;;7.30;99.90;;;;;;5040798;28;20040;-61
2023/11/13 02:45:26;;;;;;;19.00;5.70;;;7.30;99.90;;;;;;5035069;28;20034;-60
2023/11/13 02:47:52;;;;;;;11.98;5.80;;;7.40;99.90;;;;;;5032386;28;20117;-60
2023/11/13 02:50:18;;;;;;;18.83;5.45;;;7.40;99.90;;;;;;5033696;28;20051;-61
2023/11/13 02:52:44;;;;;;;17.77;5.00;;;7.40;99.90;;;;;;5036133;28;20040;-59
2023/11/13 02:55:09;;;;;;;14.13;5.57;;;7.40;99.90;;;;;;5037518;28;20494;-59
2023/11/13 02:57:36;;;;;;;18.58;4.75;;;7.50;99.90;;;;;;5034680;28;20818;-61
2023/11/13 03:00:07;;;;;;;7.90;4.45;;;7.50;99.90;;;;;;5038491;28;20037;-61
2023/11/13 03:02:33;;;;;;;9.88;4.97;;;7.50;99.90;;;;;;5034099;28;20029;-59
2023/11/13 03:04:59;;;;;;;16.88;5.53;;;7.50;99.90;;;;;;5030510;28;20040;-61
2023/11/13 03:07:25;;;;;;;14.13;5.28;;;7.60;99.90;;;;;;5037945;28;20033;-59
2023/11/13 03:09:53;;;;;;;8.23;4.85;;;7.60;99.90;;;;;;5033905;28;20095;-62
2023/11/13 03:12:18;;;;;;;15.73;4.88;;;7.60;99.90;;;;;;5034420;28;20030;-58
2023/11/13 03:14:44;;;;;;;29.33;6.55;;;7.60;99.90;;;;;;5036263;28;20399;-60
2023/11/13 03:17:10;;;;;;;12.35;6.13;;;7.60;99.90;;;;;;5034430;28;20074;-59
2023/11/13 03:19:35;;;;;;;20.95;6.78;;;7.60;99.90;;;;;;5032078;28;20030;-60
2023/11/13 03:22:01;;;;;;;13.02;6.25;;;7.60;99.90;;;;;;5031482;28;20102;-55
2023/11/13 03:24:26;;;;;;;13.20;5.45;;;7.60;99.90;;;;;;5031174;28;20037;-58
2023/11/13 03:26:52;;;;;;;17.23;6.22;;;7.60;99.90;;;;;;5033054;28;20040;-59
2023/11/13 03:29:17;;;;;;;23.75;5.55;;;7.60;99.90;;;;;;5038947;28;20044;-60
2023/11/13 03:31:43;;;;;;;19.00;7.35;;;7.70;99.90;;;;;;5035198;28;20066;-61
2023/11/13 03:34:08;;;;;;;12.77;4.97;;;7.70;99.90;;;;;;5033951;28;20649;-61
2023/11/13 03:36:34;;;;;;;9.95;5.65;;;7.70;99.90;;;;;;5040280;28;20094;-61
2023/11/13 03:39:00;;;;;;;12.98;5.22;;;7.70;99.90;;;;;;5036180;28;20057;-61
2023/11/13 03:41:25;;;;;;;10.68;5.47;;;7.70;99.90;;;;;;5029085;28;20024;-59
2023/11/13 03:43:51;;;;;;;15.88;6.10;;;7.70;99.90;;;;;;5033190;28;20026;-60
2023/11/13 03:46:16;;;;;;;11.88;6.28;;;7.70;99.90;;;;;;5041580;28;20398;-61
2023/11/13 03:48:42;;;;;;;14.45;5.95;;;7.70;99.90;;;;;;5036178;28;20523;-61
2023/11/13 03:51:07;;;;;;;14.73;5.10;;;7.70;99.90;;;;;;5033110;28;20149;-61
2023/11/13 03:53:34;;;;;;;10.52;5.53;;;7.70;99.90;;;;;;5033480;28;20556;-60
2023/11/13 03:56:00;;;;;;;11.20;5.63;;;7.70;99.90;;;;;;5033868;28;20028;-59
2023/11/13 03:58:26;;;;;;;12.68;5.60;;;7.70;99.90;;;;;;5030434;28;20082;-60
2023/11/13 04:00:51;;;;;;;11.25;7.05;;;7.60;99.90;;;;;;5033215;28;20090;-61
2023/11/13 04:03:17;;;;;;;11.40;5.78;;;7.70;99.90;;;;;;5037713;28;20033;-62
2023/11/13 04:05:42;;;;;;;11.50;6.35;;;7.70;99.90;;;;;;5042039;28;20522;-62
2023/11/13 04:08:08;;;;;;;9.70;5.63;;;7.70;99.90;;;;;;5042330;28;20037;-60
2023/11/13 04:10:34;;;;;;;12.32;6.28;;;7.70;99.90;;;;;;5031250;28;20020;-61
2023/11/13 04:13:00;;;;;;;18.02;6.70;;;7.60;99.90;;;;;;5042038;28;20116;-61
2023/11/13 04:15:25;;;;;;;13.25;6.13;;;7.70;99.90;;;;;;5036647;28;20454;-60
2023/11/13 04:17:51;;;;;;;23.83;7.28;;;7.70;99.90;;;;;;5032992;28;20037;-60
2023/11/13 04:20:18;;;;;;;13.75;6.35;;;7.70;99.90;;;;;;5035867;28;20033;-60
2023/11/13 04:22:44;;;;;;;13.25;6.78;;;7.70;99.90;;;;;;5033582;28;20033;-61
2023/11/13 04:25:11;;;;;;;11.25;6.90;;;7.70;99.90;;;;;;5033155;28;20721;-60
2023/11/13 04:27:37;;;;;;;21.45;7.88;;;7.80;99.90;;;;;;5032527;28;20024;-60
2023/11/13 04:30:04;;;;;;;12.07;7.53;;;7.80;99.90;;;;;;5031549;28;20403;-58
2023/11/13 04:32:29;;;;;;;14.55;7.60;;;7.80;99.90;;;;;;5030507;28;20028;-60
2023/11/13 04:34:55;;;;;;;15.32;7.00;;;7.80;99.90;;;;;;5031853;28;20450;-58
2023/11/13 04:37:20;;;;;;;23.70;7.50;;;7.80;99.90;;;;;;5034687;28;20060;-60
2023/11/13 04:39:46;;;;;;;17.88;7.53;;;7.80;99.90;;;;;;5034480;28;20096;-59
2023/11/13 04:42:12;;;;;;;18.92;6.93;;;7.80;99.90;;;;;;5032181;28;20075;-56
2023/11/13 04:44:38;;;;;;;16.08;7.75;;;7.80;99.90;;;;;;5028875;28;20024;-61
2023/11/13 04:47:04;;;;;;;24.08;7.47;;;7.80;99.90;;;;;;5032994;28;20103;-60
2023/11/13 04:49:30;;;;;;;16.98;8.40;;;7.80;99.90;;;;;;5033504;28;20041;-61
2023/11/13 04:51:55;;;;;;;19.42;8.38;;;7.80;99.90;;;;;;5033085;28;20029;-61
2023/11/13 04:54:21;;;;;;;54.72;8.27;;;7.80;99.90;;;;;;5032077;28;20281;-61
2023/11/13 04:56:46;;;;;;;15.98;7.30;;;7.90;99.90;;;;;;5035522;28;20055;-58
2023/11/13 04:59:12;;;;;;;13.05;7.82;;;7.90;99.90;;;;;;5031607;28;20044;-59
2023/11/13 05:01:39;;;;;;;15.07;7.35;;;7.80;99.90;;;;;;5031679;28;20033;-61
2023/11/13 05:04:08;;;;;;;22.77;7.93;;;7.80;99.90;;;;;;5028842;28;20395;-61
2023/11/13 05:06:33;;;;;;;23.95;8.82;;;7.80;99.90;;;;;;5034048;28;20017;-61
2023/11/13 05:08:59;;;;;;;16.83;7.75;;;7.90;99.90;;;;;;5033759;28;20032;-61
2023/11/13 05:11:26;;;;;;;20.77;8.15;;;7.90;99.90;;;;;;5029804;28;20143;-58
2023/11/13 05:13:52;;;;;;;21.65;8.02;;;7.90;99.90;;;;;;5029984;28;20101;-60
2023/11/13 05:16:25;;;;;;;17.98;7.50;;;8.00;99.90;;;;;;5032831;28;20029;-62
2023/11/13 05:18:52;;;;;;;17.02;8.63;;;8.00;99.90;;;;;;5032184;28;20034;-61
2023/11/13 05:21:18;;;;;;;16.75;8.60;;;8.00;99.90;;;;;;5029248;28;20074;-60
2023/11/13 05:23:44;;;;;;;16.73;8.27;;;8.00;99.90;;;;;;5033945;28;20067;-58
2023/11/13 05:26:10;;;;;;;16.40;8.70;;;7.90;99.90;;;;;;5029955;28;20067;-61
2023/11/13 05:28:35;;;;;;;21.95;10.32;;;7.90;99.90;;;;;;5027160;28;20560;-58
2023/11/13 05:31:02;;;;;;;17.77;9.05;;;8.00;99.90;;;;;;5030637;28;20669;-59
2023/11/13 05:33:28;;;;;;;17.25;7.80;;;8.10;99.90;;;;;;5030293;28;20107;-61
2023/11/13 05:35:54;;;;;;;19.70;8.20;;;8.10;99.90;;;;;;5029753;28;20033;-61
2023/11/13 05:38:19;;;;;;;23.13;8.85;;;8.10;99.90;;;;;;5026394;28;20475;-61
2023/11/13 05:40:45;;;;;;;18.95;8.85;;;8.20;99.90;;;;;;5028130;28;20022;-61
2023/11/13 05:43:11;;;;;;;15.68;8.48;;;8.10;99.90;;;;;;5026990;28;20029;-61
2023/11/13 05:45:37;;;;;;;14.63;8.65;;;8.10;99.90;;;;;;5025218;28;20016;-62
2023/11/13 05:48:03;;;;;;;18.75;8.35;;;8.20;99.90;;;;;;5028988;28;20026;-61
2023/11/13 05:50:29;;;;;;;16.98;9.30;;;8.20;99.90;;;;;;5023107;28;20037;-59
2023/11/13 05:52:54;;;;;;;32.33;9.60;;;8.10;99.90;;;;;;5024760;28;20026;-59
2023/11/13 05:55:22;;;;;;;22.13;9.23;;;8.20;99.90;;;;;;5027225;28;20431;-59
2023/11/13 05:57:48;;;;;;;12.65;8.23;;;8.20;99.90;;;;;;5028447;28;20101;-61
2023/11/13 06:00:16;;;;;;;15.73;7.68;;;8.20;99.90;;;;;;5028439;28;20129;-61
2023/11/13 06:02:42;;;;;;;12.98;7.47;;;8.20;99.90;;;;;;5040410;28;20099;-67
2023/11/13 06:05:09;;;;;;;25.08;9.55;;;8.20;99.90;;;;;;5039677;28;20033;-66
2023/11/13 06:07:36;;;;;;;14.52;8.18;;;8.30;99.90;;;;;;5042396;28;20017;-66
2023/11/13 06:10:04;;;;;;;20.52;8.25;;;8.30;99.90;;;;;;5038384;28;20571;-66
2023/11/13 06:12:30;;;;;;;18.40;8.77;;;8.30;99.90;;;;;;5040391;28;20029;-66
2023/11/13 06:14:56;;;;;;;11.68;7.22;;;8.30;99.90;;;;;;5035688;28;20025;-67
2023/11/13 06:17:23;;;;;;;15.32;7.45;;;8.30;99.90;;;;;;5036965;28;20518;-65
2023/11/13 06:19:51;;;;;;;21.08;7.70;;;8.40;99.90;;;;;;5035927;28;20067;-66
2023/11/13 06:22:17;;;;;;;12.85;7.28;;;8.40;99.90;;;;;;5035951;28;20032;-65
2023/11/13 06:24:43;;;;;;;14.75;7.85;;;8.40;99.90;;;;;;5036576;28;20025;-66
2023/11/13 06:27:12;;;;;;;18.20;7.03;;;8.40;99.90;;;;;;5033421;28;20029;-66
2023/11/13 06:29:37;;;;;;;21.58;7.82;;;8.40;99.90;;;;;;5034629;28;20515;-66
2023/11/13 06:32:03;;;;;;;12.52;7.13;;;8.40;99.90;;;;;;5035591;28;20059;-66
2023/11/13 06:34:29;;;;;;;16.38;6.90;;;8.40;99.90;;;;;;5037903;28;20491;-66
2023/11/13 06:36:54;;;;;;;14.23;6.70;;;8.40;99.90;;;;;;5031871;28;20094;-66
2023/11/13 06:39:20;;;;;;;11.50;6.45;;;8.50;99.90;;;;;;5033162;28;20390;-67
2023/11/13 06:41:45;;;;;;;13.25;6.65;;;8.40;99.90;;;;;;5035834;28;20816;-66
2023/11/13 06:44:11;;;;;;;28.23;6.80;;;8.50;99.90;;;;;;5037562;28;20521;-66
2023/11/13 06:46:37;;;;;;;10.82;5.35;;;8.50;99.90;;;;;;5037788;28;20031;-64
2023/11/13 06:49:04;;;;;;;24.58;7.07;;;8.60;99.90;;;;;;5035277;28;20094;-66
2023/11/13 06:51:30;;;;;;;19.00;6.45;;;8.60;99.90;;;;;;5037836;28;20438;-66
2023/11/13 06:53:56;;;;;;;14.50;6.22;;;8.60;99.90;;;;;;5036773;28;20052;-65
2023/11/13 06:56:21;;;;;;;14.80;5.78;;;8.50;99.90;;;;;;5036203;28;20534;-66
2023/11/13 06:58:49;;;;;;;11.68;6.18;;;8.60;99.90;;;;;;5044259;28;20344;-65
2023/11/13 07:01:15;;;;;;;14.15;6.80;;;8.60;99.90;;;;;;5042620;28;20029;-66
2023/11/13 07:03:40;;;;;;;14.13;7.28;;;8.50;99.90;;;;;;5046984;28;20042;-66
2023/11/13 07:06:10;;;;;;;18.63;6.47;;;8.50;99.90;;;;;;5042345;28;20415;-67
2023/11/13 07:08:36;;;;;;;20.45;7.05;;;8.50;99.90;;;;;;5043620;28;20022;-67
2023/11/13 07:11:02;;;;;;;12.85;6.07;;;8.60;99.90;;;;;;5032971;28;20025;-64
2023/11/13 07:13:29;;;;;;;20.80;7.05;;;8.60;99.90;;;;;;5032810;28;20562;-66
2023/11/13 07:15:55;;;;;;;16.85;6.90;;;8.60;99.90;;;;;;5036130;28;20033;-67
2023/11/13 07:18:21;;;;;;;11.27;5.50;;;8.70;99.90;;;;;;5033762;28;20052;-66
2023/11/13 07:20:46;;;;;;;16.85;5.93;;;8.70;99.90;;;;;;5036689;28;20108;-67
2023/11/13 07:23:16;;;;;;;20.15;5.57;;;8.70;99.90;;;;;;5037599;28;20044;-68
2023/11/13 07:25:44;;;;;;;12.07;6.28;;;8.70;99.90;;;;;;5032527;28;20114;-68
2023/11/13 07:28:10;;;;;;;38.15;6.70;;;8.70;99.90;;;;;;5034937;28;20017;-68
2023/11/13 07:30:37;;;;;;;22.83;6.28;;;8.70;99.90;;;;;;5035024;28;20036;-69
2023/11/13 07:33:03;;;;;;;19.95;5.78;;;8.70;99.90;;;;;;5032126;28;20029;-69
2023/11/13 07:35:29;;;;;;;9.80;5.68;;;8.80;99.90;;;;;;5043420;28;21630;-68
2023/11/13 07:37:55;;;;;;;15.63;5.85;;;8.80;99.90;;;;;;5034499;28;20090;-67
2023/11/13 07:40:20;;;;;;;23.20;5.40;;;8.80;99.90;;;;;;5029315;28;20131;-67
2023/11/13 07:42:48;;;;;;;18.35;5.93;;;8.80;99.90;;;;;;5034549;28;20116;-68
2023/11/13 07:45:14;;;;;;;39.45;7.75;;;8.90;99.90;;;;;;5035341;28;20049;-66
2023/11/13 07:47:39;;;;;;;14.57;5.13;;;8.90;99.90;;;;;;5033544;28;20455;-69
2023/11/13 07:50:11;;;;;;;10.73;5.25;;;9.00;99.90;;;;;;5030559;28;20539;-68
2023/11/13 07:52:41;;;;;;;14.75;5.38;;;8.90;99.90;;;;;;5035064;28;20028;-68
2023/11/13 07:55:09;;;;;;;11.18;5.28;;;9.00;99.90;;;;;;5034685;28;20026;-69
2023/11/13 07:57:37;;;;;;;23.65;5.85;;;9.00;99.90;;;;;;5033544;28;20052;-68
2023/11/13 08:00:10;;;;;;;11.55;5.07;;;9.10;99.90;;;;;;5035955;28;20029;-68
2023/11/13 08:02:40;;;;;;;12.00;4.72;;;9.20;99.90;;;;;;5042831;28;20021;-68
2023/11/13 08:05:10;;;;;;;14.35;4.70;;;9.20;99.90;;;;;;5045051;28;20029;-68
2023/11/13 08:07:37;;;;;;;22.52;5.50;;;9.30;99.90;;;;;;5036795;28;20036;-68
2023/11/13 08:10:08;;;;;;;11.60;4.03;;;9.30;99.90;;;;;;5041595;28;20025;-69
2023/11/13 08:12:35;;;;;;;13.80;4.57;;;9.40;99.90;;;;;;5042080;28;20029;-67
2023/11/13 08:15:00;;;;;;;16.85;5.68;;;9.40;99.90;;;;;;5043395;28;20064;-68
2023/11/13 08:17:26;;;;;;;15.75;5.18;;;9.40;99.90;;;;;;5043023;28;20458;-68
2023/11/13 08:19:51;;;;;;;18.75;4.80;;;9.40;99.90;;;;;;5032299;28;20104;-68
2023/11/13 08:22:18;;;;;;;16.58;4.70;;;9.50;99.90;;;;;;5032882;28;20029;-69
2023/11/13 08:24:43;;;;;;;18.65;4.53;;;9.60;99.90;;;;;;5031919;28;20078;-69
2023/11/13 08:27:09;;;;;;;17.90;4.43;;;9.60;99.90;;;;;;5042127;28;20441;-69
2023/11/13 08:29:35;;;;;;;22.25;4.85;;;9.70;99.90;;;;;;5040257;28;20499;-69
2023/11/13 08:32:00;;;;;;;20.88;4.60;;;9.70;99.90;;;;;;5037992;28;20029;-68
2023/11/13 08:34:26;;;;;;;19.65;4.07;;;9.70;99.90;;;;;;5035957;28;20045;-69
2023/11/13 08:36:51;;;;;;;17.73;4.30;;;9.80;99.90;;;;;;5044036;28;20028;-68
2023/11/13 08:39:17;;;;;;;15.95;3.38;;;9.80;99.90;;;;;;5042177;28;20074;-68
2023/11/13 08:41:44;;;;;;;12.75;3.65;;;9.90;99.90;;;;;;5039036;28;20089;-68
2023/11/13 08:44:09;;;;;;;12.98;3.20;;;9.90;99.90;;;;;;5040945;28;20028;-69
2023/11/13 08:46:35;;;;;;;8.68;2.85;;;9.90;99.90;;;;;;5040956;28;20658;-69
2023/11/13 08:49:03;;;;;;;12.05;2.92;;;10.00;99.90;;;;;;5047594;28;20018;-68
2023/11/13 08:51:30;;;;;;;16.60;2.95;;;10.00;99.90;;;;;;5041507;28;20095;-68
2023/11/13 08:53:58;;;;;;;16.58;3.38;;;10.10;99.90;;;;;;5049055;28;20021;-69
2023/11/13 08:56:24;;;;;;;6.32;3.15;;;10.10;99.90;;;;;;5049139;28;20116;-69
2023/11/13 08:58:49;;;;;;;18.50;3.92;;;10.10;99.90;;;;;;5042378;28;20109;-69
2023/11/13 09:01:16;;;;;;;15.30;3.67;;;10.20;99.90;;;;;;5053969;28;20045;-69
2023/11/13 09:03:43;;;;;;;15.75;3.58;;;10.20;99.90;;;;;;5046986;28;20055;-68
2023/11/13 09:06:09;;;;;;;10.65;3.53;;;10.20;99.90;;;;;;5045353;28;20112;-68
2023/11/13 09:08:36;;;;;;;12.48;3.58;;;10.20;99.90;;;;;;5034920;28;20053;-69
2023/11/13 09:11:04;;;;;;;15.15;3.38;;;10.20;99.90;;;;;;5044204;28;20427;-70
2023/11/13 09:13:29;;;;;;;11.63;3.30;;;10.30;99.90;;;;;;5035596;28;20021;-67
2023/11/13 09:15:55;;;;;;;10.80;3.45;;;10.30;99.90;;;;;;5045014;28;20033;-68
2023/11/13 09:18:26;;;;;;;10.20;2.97;;;10.30;99.90;;;;;;5037593;28;20057;-69
2023/11/13 09:20:54;;;;;;;11.45;2.80;;;10.40;99.90;;;;;;5043513;28;20154;-67
2023/11/13 09:23:20;;;;;;;9.60;2.83;;;10.40;99.90;;;;;;5049420;28;20021;-68
2023/11/13 09:25:46;;;;;;;10.45;2.85;;;10.40;99.90;;;;;;5046630;28;20017;-68
2023/11/13 09:28:12;;;;;;;9.77;2.90;;;10.50;99.90;;;;;;5040991;28;20030;-68
2023/11/13 09:30:39;;;;;;;11.18;3.88;;;10.50;99.90;;;;;;5044133;28;20038;-69
2023/11/13 09:33:08;;;;;;;8.27;3.58;;;10.50;99.90;;;;;;5040207;28;20021;-69
2023/11/13 09:35:36;;;;;;;20.80;4.18;;;10.60;99.90;;;;;;5042248;28;20029;-69
2023/11/13 09:38:02;;;;;;;14.25;5.57;;;10.60;99.90;;;;;;5045375;28;20530;-69
2023/11/13 09:40:34;;;;;;;21.50;6.30;;;10.60;99.90;;;;;;5044363;28;20434;-68
2023/11/13 09:43:12;;;;;;;20.40;6.60;;;10.60;99.90;;;;;;5044179;28;20024;-70
2023/11/13 09:45:44;;;;;;;17.55;6.03;;;10.60;99.90;;;;;;5043829;28;20514;-68
2023/11/13 09:48:14;;;;;;;15.80;4.88;;;10.60;99.90;;;;;;5043283;28;20120;-68
2023/11/13 09:50:40;;;;;;;12.30;4.95;;;10.60;99.90;;;;;;5042655;28;20487;-68
2023/11/13 09:53:08;;;;;;;14.82;5.28;;;10.50;99.90;;;;;;5043841;28;20044;-68
2023/11/13 09:55:38;;;;;;;14.57;6.00;;;10.50;99.90;;;;;;5045618;28;20096;-69
2023/11/13 09:58:04;;;;;;;14.73;5.43;;;10.50;99.90;;;;;;5044856;28;20028;-69
2023/11/13 10:00:32;;;;;;;13.63;5.72;;;10.60;99.90;;;;;;5044398;28;20013;-68
2023/11/13 10:02:58;;;;;;;13.02;4.90;;;10.60;99.90;;;;;;5043603;28;20489;-69
2023/11/13 10:05:31;;;;;;;13.75;5.80;;;10.60;99.90;;;;;;5043318;28;20025;-67
2023/11/13 10:07:57;;;;;;;13.20;5.40;;;10.70;99.90;;;;;;5042830;28;20043;-69
2023/11/13 10:10:26;;;;;;;15.35;5.22;;;10.70;99.90;;;;;;5043182;28;20487;-68
2023/11/13 10:12:53;;;;;;;17.15;5.05;;;10.80;99.90;;;;;;5041638;28;20028;-68
2023/11/13 10:15:27;;;;;;;13.57;5.03;;;10.80;99.90;;;;;;5040878;28;20017;-70
2023/11/13 10:17:56;;;;;;;14.77;5.07;;;10.80;99.90;;;;;;5040297;28;20147;-69
2023/11/13 10:20:22;;;;;;;15.00;4.75;;;10.80;99.90;;;;;;5039386;28;20494;-68
2023/11/13 10:23:04;;;;;;;10.93;5.43;;;10.80;99.90;;;;;;5041929;28;20454;-69
2023/11/13 10:25:46;;;;;;;9.88;4.78;;;10.80;99.90;;;;;;5040580;28;20116;-68
2023/11/13 10:28:14;;;;;;;14.55;4.50;;;10.90;99.90;;;;;;5045448;28;20036;-69
2023/11/13 10:30:51;;;;;;;10.82;4.13;;;10.90;99.90;;;;;;5044654;28;20369;-68
2023/11/13 10:33:17;;;;;;;14.88;4.32;;;10.90;99.90;;;;;;5043774;28;20029;-69
2023/11/13 10:35:45;;;;;;;13.95;4.32;;;10.90;99.90;;;;;;5043564;28;20096;-68
2023/11/13 10:38:14;;;;;;;14.32;4.68;;;10.90;99.90;;;;;;5039369;28;20036;-68
2023/11/13 10:40:43;;;;;;;9.38;3.42;;;10.90;99.90;;;;;;5034498;28;20013;-69
2023/11/13 10:43:10;;;;;;;16.42;3.47;;;11.00;99.90;;;;;;5048719;28;20064;-69
2023/11/13 10:45:46;;;;;;;7.20;3.13;;;11.00;99.90;;;;;;5047681;28;20025;-69
2023/11/13 10:48:11;;;;;;;12.05;3.40;;;11.10;99.90;;;;;;5044877;28;20112;-69
2023/11/13 10:50:37;;;;;;;11.27;2.88;;;11.10;99.90;;;;;;5049860;28;20092;-70
2023/11/13 10:53:04;;;;;;;12.45;3.80;;;11.10;99.90;;;;;;5039288;28;20026;-69
2023/11/13 10:55:31;;;;;;;5.28;2.60;;;11.10;99.90;;;;;;5053595;28;20092;-69
2023/11/13 10:57:57;;;;;;;7.55;3.42;;;11.10;99.90;;;;;;5041425;28;20087;-68
2023/11/13 11:00:22;;;;;;;14.82;3.08;;;11.20;99.90;;;;;;5045422;28;20488;-68
2023/11/13 11:02:53;;;;;;;6.43;2.83;;;11.20;99.90;;;;;;5047572;28;20017;-68
2023/11/13 11:05:23;;;;;;;8.60;3.05;;;11.30;99.90;;;;;;5045121;28;20022;-69
2023/11/13 11:07:55;;;;;;;9.55;2.85;;;11.30;99.90;;;;;;5038396;28;20332;-72
2023/11/13 11:10:26;;;;;;;6.07;2.33;;;11.30;99.90;;;;;;5050062;28;20017;-69
2023/11/13 11:13:05;;;;;;;9.20;3.28;;;11.30;99.90;;;;;;5038776;28;20541;-68
2023/11/13 11:16:13;;;;;;;7.53;2.92;;;11.40;99.90;;;;;;5053976;28;20021;-69
2023/11/13 11:19:02;;;;;;;8.05;2.70;;;11.40;99.90;;;;;;5043570;28;20040;-69
2023/11/13 11:22:01;;;;;;;14.13;3.42;;;11.40;99.90;;;;;;5040413;28;20036;-69
2023/11/13 11:24:55;;;;;;;7.82;2.60;;;11.50;99.90;;;;;;5045014;28;20028;-69
2023/11/13 11:27:56;;;;;;;6.75;2.95;;;11.50;99.90;;;;;;5040608;28;20491;-69
2023/11/13 11:30:22;;;;;;;10.25;2.88;;;11.50;99.90;;;;;;5013000;28;20038;-70
2023/11/13 11:32:52;;;;;;;12.48;2.42;;;11.50;99.90;;;;;;5041023;28;20120;-67
2023/11/13 11:35:21;;;;;;;5.75;2.53;;;11.50;99.90;;;;;;5044685;28;20044;-69
2023/11/13 11:38:27;;;;;;;13.20;3.88;;;11.50;99.90;;;;;;5047674;28;20429;-69
2023/11/13 11:40:58;;;;;;;6.40;2.63;;;11.50;99.90;;;;;;5038432;28;20022;-69
2023/11/13 11:43:38;;;;;;;5.25;2.05;;;11.50;99.90;;;;;;5047494;28;20109;-69
2023/11/13 11:46:05;;;;;;;9.68;1.90;;;11.60;99.90;;;;;;5038963;28;20567;-68
2023/11/13 11:48:34;;;;;;;9.75;2.17;;;11.60;99.90;;;;;;5052822;28;20104;-69
2023/11/13 11:51:13;;;;;;;12.35;2.10;;;11.70;99.90;;;;;;5042608;28;20052;-69
2023/11/13 11:53:54;;;;;;;6.35;1.75;;;11.70;99.90;;;;;;5044172;28;20018;-69
2023/11/13 11:56:20;;;;;;;4.88;1.63;;;11.70;99.90;;;;;;5047860;28;20027;-69
2023/11/13 11:58:46;;;;;;;6.00;1.85;;;11.80;99.90;;;;;;5038776;28;20024;-69
2023/11/13 12:01:13;;;;;;;10.35;1.73;;;11.80;99.90;;;;;;5049906;28;20033;-69
2023/11/13 12:03:38;;;;;;;7.18;2.08;;;11.80;99.90;;;;;;5038663;28;20108;-69
2023/11/13 12:06:08;;;;;;;6.15;1.77;;;11.80;99.90;;;;;;5048504;28;20097;-69
2023/11/13 12:08:33;;;;;;;3.75;1.80;;;11.80;99.90;;;;;;5041784;28;20068;-70
2023/11/13 12:10:59;;;;;;;5.10;1.70;;;11.80;99.90;;;;;;5045190;28;20025;-69
2023/11/13 12:13:25;;;;;;;5.80;1.58;;;11.80;99.90;;;;;;5036519;28;20026;-67
2023/11/13 12:15:54;;;;;;;7.55;2.30;;;11.80;99.90;;;;;;5042894;28;20506;-69
2023/11/13 12:18:20;;;;;;;7.38;2.63;;;11.90;99.90;;;;;;5042070;28;20044;-69
2023/11/13 12:20:46;;;;;;;6.55;2.83;;;11.90;99.90;;;;;;5047902;28;20486;-69
2023/11/13 12:23:15;;;;;;;7.95;2.70;;;11.90;99.90;;;;;;5040654;28;20021;-69
2023/11/13 12:25:41;;;;;;;16.63;2.75;;;11.90;99.90;;;;;;5047358;28;20021;-69
2023/11/13 12:28:08;;;;;;;13.20;2.95;;;11.90;99.90;;;;;;5040451;28;20052;-67
2023/11/13 12:30:34;;;;;;;11.02;4.28;;;11.90;99.90;;;;;;5046559;28;20480;-69
2023/11/13 12:33:00;;;;;;;10.18;4.00;;;11.90;99.90;;;;;;5040564;28;20021;-68
2023/11/13 12:35:26;;;;;;;10.07;3.78;;;11.90;99.90;;;;;;5044138;28;20013;-69
2023/11/13 12:37:52;;;;;;;6.65;3.17;;;11.90;99.90;;;;;;5046412;28;20155;-68
2023/11/13 12:40:20;;;;;;;9.32;3.88;;;11.90;99.90;;;;;;5047876;28;20468;-69
2023/11/13 12:42:46;;;;;;;11.80;3.28;;;12.00;99.90;;;;;;5046581;28;20135;-69
2023/11/13 12:45:14;;;;;;;14.57;3.05;;;12.10;99.90;;;;;;5049244;28;20472;-69
2023/11/13 12:47:50;;;;;;;7.93;3.05;;;12.10;99.90;;;;;;5037068;28;20379;-68